Hua Heng 167 — BIAK3 — position and weather

sailwx.info

Track history (hours):
 
Tides and Currents Weather Stations Pressure Air Temp Water Temp Dewpoint Dewpoint Depression Visibility Wind Speed Wind Dir Waves Ship Positions

Hua Heng 167

Last reported at 2014-Dec-18 05:20 UTC. Time now 2014-Dec-18 23:09 UTC.
Position N 49°21' W 127°15'.

Length 189 m; draft 6.8 m.

Type: Cargo ship. MMSI: 413376470.

Date/timePositionNaut miles runAvg speedWind from/ knotsBaromVisibWave heightAir tempDewpointWater temp
2014-Dec-18 05:20N 49°21' W 127°15'1013.3
2014-Dec-18 04:33N 49°13' W 127°03'1413.6
2014-Dec-18 03:32N 49°04' W 126°49'1413.5
2014-Dec-18 02:32N 48°53' W 126°35'1313.1
2014-Dec-18 01:33N 48°45' W 126°21'1313.1
2014-Dec-18 00:33N 48°35' W 126°06'1212.3
2014-Dec-17 23:33N 48°31' W 125°49'1312.6
2014-Dec-17 22:33N 48°31' W 125°30'1212.3
2014-Dec-17 21:33N 48°31' W 125°11'1312.6
2014-Dec-17 20:33N 48°31' W 124°52'1212.0
2014-Dec-17 19:33N 48°28' W 124°35'1313.0
2014-Dec-17 18:33N 48°23' W 124°17'1313.0
2014-Dec-17 17:33N 48°18' W 123°59'1413.1
2014-Dec-17 16:27N 48°16' W 123°37'1011.6
2014-Dec-17 15:33N 48°22' W 123°25'1110.6
2014-Dec-17 14:34N 48°29' W 123°12'1413.8
2014-Dec-17 13:33N 48°43' W 123°13'1010.2
2014-Dec-17 12:33N 48°51' W 123°05'1413.8
2014-Dec-17 11:34N 49°01' W 123°20'1312.9
2014-Dec-17 10:33N 49°14' W 123°22'1110.9
2014-Dec-17 09:33N 49°18' W 123°06'1 0.9
2014-Dec-17 08:33N 49°18' W 123°05'0 0.0
2014-Dec-17 07:33N 49°18' W 123°05'0 0.0
2014-Dec-17 06:33N 49°18' W 123°05'0 0.0
2014-Dec-17 05:33N 49°18' W 123°05'0 0.0
2014-Dec-17 04:33N 49°18' W 123°05'0 0.0
2014-Dec-17 03:33N 49°18' W 123°05'0 0.0
2014-Dec-17 02:33N 49°18' W 123°05'0 0.1
2014-Dec-17 01:33N 49°18' W 123°05'0 0.0
2014-Dec-17 00:33N 49°18' W 123°05'0 0.0
2014-Dec-16 23:33N 49°18' W 123°05'1 0.6
2014-Dec-16 22:33N 49°18' W 123°06'8 8.0
2014-Dec-16 21:33N 49°16' W 123°18'1312.8
2014-Dec-16 20:33N 49°04' W 123°20'1413.8
2014-Dec-16 19:33N 48°55' W 123°04'1313.4
2014-Dec-16 18:34N 48°51' W 122°44'  
Track history (hours):
 
Tides and Currents Weather Stations Pressure Air Temp Water Temp Dewpoint Dewpoint Depression Visibility Wind Speed Wind Dir Waves Ship Positions

Hua Heng 167

Last reported at 2014-Dec-18 05:20 UTC. Time now 2014-Dec-18 23:09 UTC.
Position N 49°21' W 127°15'.

Length 189 m; draft 6.8 m.

Type: Cargo ship. MMSI: 413376470.

Date/timePositionNaut miles runAvg speedWind from/ knotsBaromVisibWave heightAir tempDewpointWater temp
2014-Dec-18 05:20N 49°21' W 127°15'1013.3
2014-Dec-18 04:33N 49°13' W 127°03'1413.6
2014-Dec-18 03:32N 49°04' W 126°49'1413.5
2014-Dec-18 02:32N 48°53' W 126°35'1313.1
2014-Dec-18 01:33N 48°45' W 126°21'1313.1
2014-Dec-18 00:33N 48°35' W 126°06'1212.3
2014-Dec-17 23:33N 48°31' W 125°49'1312.6
2014-Dec-17 22:33N 48°31' W 125°30'1212.3
2014-Dec-17 21:33N 48°31' W 125°11'1312.6
2014-Dec-17 20:33N 48°31' W 124°52'1212.0
2014-Dec-17 19:33N 48°28' W 124°35'1313.0
2014-Dec-17 18:33N 48°23' W 124°17'1313.0
2014-Dec-17 17:33N 48°18' W 123°59'1413.1
2014-Dec-17 16:27N 48°16' W 123°37'1011.6
2014-Dec-17 15:33N 48°22' W 123°25'1110.6
2014-Dec-17 14:34N 48°29' W 123°12'1413.8
2014-Dec-17 13:33N 48°43' W 123°13'1010.2
2014-Dec-17 12:33N 48°51' W 123°05'1413.8
2014-Dec-17 11:34N 49°01' W 123°20'1312.9
2014-Dec-17 10:33N 49°14' W 123°22'1110.9
2014-Dec-17 09:33N 49°18' W 123°06'1 0.9
2014-Dec-17 08:33N 49°18' W 123°05'0 0.0
2014-Dec-17 07:33N 49°18' W 123°05'0 0.0
2014-Dec-17 06:33N 49°18' W 123°05'0 0.0
2014-Dec-17 05:33N 49°18' W 123°05'0 0.0
2014-Dec-17 04:33N 49°18' W 123°05'0 0.0
2014-Dec-17 03:33N 49°18' W 123°05'0 0.0
2014-Dec-17 02:33N 49°18' W 123°05'0 0.1
2014-Dec-17 01:33N 49°18' W 123°05'0 0.0
2014-Dec-17 00:33N 49°18' W 123°05'0 0.0
2014-Dec-16 23:33N 49°18' W 123°05'1 0.6
2014-Dec-16 22:33N 49°18' W 123°06'8 8.0
2014-Dec-16 21:33N 49°16' W 123°18'1312.8
2014-Dec-16 20:33N 49°04' W 123°20'1413.8
2014-Dec-16 19:33N 48°55' W 123°04'1313.4
2014-Dec-16 18:34N 48°51' W 122°44'  

Dump ship's entire track history